Time;durP1;ratioP1;P1;durP2;ratioP2;P2;SDS_P1;SDS_P2;PMS_P1;PMS_P2;Temp;Humidity;BMP_temperature;BMP_pressure;BME280_temperature;BME280_humidity;BME280_pressure;Samples;Min_cycle;Max_cycle;Signal;HPM_P1;HPM_P2
2022/08/06 00:02:20;;;;;;;42.35;31.45;;;;;;;;;;5098394;28;20036;-65
2022/08/06 00:04:53;;;;;;;54.63;40.30;;;;;;;;;;5097778;28;20122;-65
2022/08/06 00:07:21;;;;;;;24.63;16.45;;;;;;;;;;5096741;28;20086;-65
2022/08/06 00:09:53;;;;;;;12.77;9.13;;;;;;;;;;5097312;28;20044;-64
2022/08/06 00:12:27;;;;;;;21.45;16.50;;;;;;;;;;5097424;28;20068;-65
2022/08/06 00:14:56;;;;;;;14.10;10.32;;;;;;;;;;5097529;28;20039;-65
2022/08/06 00:17:25;;;;;;;20.35;16.67;;;;;;;;;;5096904;28;20044;-65
2022/08/06 00:19:59;;;;;;;;;;;;;;;;;;5097486;28;20132;-65
2022/08/06 00:22:27;;;;;;;19.48;13.32;;;;;;;;;;5079103;28;20324;-65
2022/08/06 00:24:56;;;;;;;18.13;15.05;;;;;;;;;;5097145;28;20048;-65
2022/08/06 00:27:25;;;;;;;12.32;5.90;;;;;;;;;;5096895;28;20075;-66
2022/08/06 00:30:06;;;;;;;17.45;13.70;;;;;;;;;;5096414;28;20177;-65
2022/08/06 00:32:48;;;;;;;19.08;16.50;;;;;;;;;;5064434;28;20130;-65
2022/08/06 00:35:22;;;;;;;8.98;6.10;;;;;;;;;;5097014;28;20040;-65
2022/08/06 00:37:56;;;;;;;6.47;5.80;;;;;;;;;;5096711;28;20098;-65
2022/08/06 00:40:28;;;;;;;20.60;14.63;;;;;;;;;;5079658;28;20047;-65
2022/08/06 00:42:57;;;;;;;19.58;15.45;;;;;;;;;;5096706;28;20040;-65
2022/08/06 00:45:35;;;;;;;11.40;8.43;;;;;;;;;;5097020;28;20043;-65
2022/08/06 00:48:08;;;;;;;20.50;17.40;;;;;;;;;;5096734;28;20557;-65
2022/08/06 00:50:56;;;;;;;17.20;14.00;;;;;;;;;;5096537;28;20040;-65
2022/08/06 00:53:27;;;;;;;15.90;12.18;;;;;;;;;;5096834;28;20126;-65
2022/08/06 00:56:01;;;;;;;16.03;12.10;;;;;;;;;;5096666;28;20047;-65
2022/08/06 00:58:37;;;;;;;7.97;5.85;;;;;;;;;;5096503;28;20051;-65
2022/08/06 01:01:11;;;;;;;17.38;13.75;;;;;;;;;;5095328;28;20123;-66
2022/08/06 01:03:47;;;;;;;20.65;13.73;;;;;;;;;;5077838;28;20052;-65
2022/08/06 01:06:22;;;;;;;28.83;23.50;;;;;;;;;;5078511;28;20446;-65
2022/08/06 01:09:10;;;;;;;31.35;22.35;;;;;;;;;;5096996;28;20051;-65
2022/08/06 01:11:38;;;;;;;28.75;23.73;;;;;;;;;;5078687;28;20112;-65
2022/08/06 01:14:06;;;;;;;33.58;26.02;;;;;;;;;;5095688;28;20040;-65
2022/08/06 01:16:36;;;;;;;8.80;6.78;;;;;;;;;;5092887;28;20413;-65
2022/08/06 01:19:24;;;;;;;16.67;12.40;;;;;;;;;;5096017;28;20048;-65
2022/08/06 01:22:38;;;;;;;10.73;7.07;;;;;;;;;;5096310;28;20116;-66
2022/08/06 01:25:20;;;;;;;20.08;12.85;;;;;;;;;;5072456;28;20052;-65
2022/08/06 01:28:03;;;;;;;14.65;10.20;;;;;;;;;;5095153;28;20402;-66
2022/08/06 01:30:33;;;;;;;;;;;;;;;;;;5096637;28;20044;-66
2022/08/06 01:33:12;;;;;;;8.68;6.13;;;;;;;;;;5096198;28;19924;-65
2022/08/06 01:35:45;;;;;;;17.08;11.07;;;;;;;;;;5096099;28;20123;-65
2022/08/06 01:38:33;;;;;;;17.55;12.27;;;;;;;;;;5095891;28;20490;-65
2022/08/06 01:41:05;;;;;;;26.33;21.15;;;;;;;;;;5095951;28;20040;-65
2022/08/06 01:43:34;;;;;;;11.40;7.25;;;;;;;;;;5095850;28;20060;-65
2022/08/06 01:46:22;;;;;;;23.27;16.30;;;;;;;;;;5095882;28;20040;-65
2022/08/06 01:48:51;;;;;;;14.68;8.48;;;;;;;;;;5095886;28;20047;-65
2022/08/06 01:51:21;;;;;;;26.15;19.98;;;;;;;;;;5095848;28;20074;-65
2022/08/06 01:54:10;;;;;;;11.35;8.00;;;;;;;;;;5095384;28;20056;-65
2022/08/06 01:56:41;;;;;;;12.95;9.90;;;;;;;;;;5095711;28;20448;-65
2022/08/06 01:59:33;;;;;;;18.63;14.45;;;;;;;;;;5095393;28;20070;-66
2022/08/06 02:02:06;;;;;;;25.20;20.60;;;;;;;;;;5095344;28;20054;-66
2022/08/06 02:04:37;;;;;;;31.77;20.10;;;;;;;;;;5095522;28;20040;-66
2022/08/06 02:07:07;;;;;;;36.15;28.80;;;;;;;;;;5095151;28;20565;-66
2022/08/06 02:09:56;;;;;;;35.65;28.60;;;;;;;;;;5095259;28;20094;-66
2022/08/06 02:12:25;;;;;;;33.60;24.52;;;;;;;;;;5095337;28;20067;-66
2022/08/06 02:14:54;;;;;;;40.10;31.63;;;;;;;;;;5094708;28;20043;-66
2022/08/06 02:17:25;;;;;;;16.35;12.18;;;;;;;;;;5095167;28;20040;-66
2022/08/06 02:20:15;;;;;;;28.73;22.52;;;;;;;;;;5095397;28;20036;-66
2022/08/06 02:23:04;;;;;;;28.52;22.33;;;;;;;;;;5094769;28;20040;-66
2022/08/06 02:25:36;;;;;;;24.55;19.85;;;;;;;;;;5095152;28;20049;-66
2022/08/06 02:28:05;;;;;;;14.32;11.25;;;;;;;;;;5094768;28;20051;-66
2022/08/06 02:30:37;;;;;;;16.10;11.80;;;;;;;;;;5094880;28;20044;-65
2022/08/06 02:33:09;;;;;;;28.08;23.00;;;;;;;;;;5094831;28;20494;-66
2022/08/06 02:35:47;;;;;;;13.13;6.85;;;;;;;;;;5094676;28;20044;-66
2022/08/06 02:38:23;;;;;;;22.90;15.82;;;;;;;;;;5094681;28;20041;-66
2022/08/06 02:40:59;;;;;;;11.95;6.55;;;;;;;;;;5094921;28;20067;-66
2022/08/06 02:43:37;;;;;;;45.83;35.30;;;;;;;;;;5094628;28;20117;-66
2022/08/06 02:46:13;;;;;;;13.52;6.47;;;;;;;;;;5094673;28;20523;-66
2022/08/06 02:48:44;;;;;;;27.42;18.52;;;;;;;;;;5094524;28;20044;-66
2022/08/06 02:51:16;;;;;;;53.17;40.80;;;;;;;;;;5094698;28;20048;-66
2022/08/06 02:54:32;;;;;;;23.67;16.50;;;;;;;;;;5094400;28;20047;-66
2022/08/06 02:57:17;;;;;;;51.53;40.97;;;;;;;;;;5060849;28;20402;-66
2022/08/06 02:59:46;;;;;;;38.08;30.17;;;;;;;;;;5093854;28;20104;-66
2022/08/06 03:02:24;;;;;;;27.85;22.27;;;;;;;;;;5077221;28;20108;-66
2022/08/06 03:04:54;;;;;;;21.02;15.95;;;;;;;;;;5094170;28;20043;-66
2022/08/06 03:07:27;;;;;;;14.63;8.02;;;;;;;;;;5077053;28;20047;-66
2022/08/06 03:09:58;;;;;;;15.18;9.23;;;;;;;;;;5094557;28;20620;-66
2022/08/06 03:12:26;;;;;;;33.90;25.30;;;;;;;;;;5076701;28;20119;-66
2022/08/06 03:14:58;;;;;;;23.73;17.05;;;;;;;;;;5094397;28;20375;-66
2022/08/06 03:17:37;;;;;;;12.88;7.05;;;;;;;;;;5094537;28;20040;-66
2022/08/06 03:20:06;;;;;;;18.83;15.65;;;;;;;;;;5094986;28;20043;-65
2022/08/06 03:22:44;;;;;;;10.45;7.63;;;;;;;;;;5093969;28;20043;-66
2022/08/06 03:25:15;;;;;;;17.35;7.18;;;;;;;;;;5093966;28;20040;-65
2022/08/06 03:27:46;;;;;;;18.63;12.75;;;;;;;;;;5093946;28;20056;-66
2022/08/06 03:30:18;;;;;;;16.88;9.98;;;;;;;;;;5094250;28;20044;-66
2022/08/06 03:33:10;;;;;;;30.58;19.83;;;;;;;;;;5092887;28;20379;-66
2022/08/06 03:35:57;;;;;;;26.60;17.45;;;;;;;;;;5093119;28;20059;-66
2022/08/06 03:38:27;;;;;;;46.80;37.50;;;;;;;;;;5092644;28;20122;-66
2022/08/06 03:40:56;;;;;;;26.23;17.30;;;;;;;;;;5089470;28;20418;-66
2022/08/06 03:43:24;;;;;;;23.33;15.40;;;;;;;;;;5074637;28;20044;-66
2022/08/06 03:46:13;;;;;;;31.95;25.10;;;;;;;;;;5079869;28;20048;-66
2022/08/06 03:48:45;;;;;;;20.13;14.38;;;;;;;;;;5088221;28;20055;-66
2022/08/06 03:51:17;;;;;;;30.35;24.23;;;;;;;;;;5090496;28;20490;-66
2022/08/06 03:54:05;;;;;;;20.58;14.75;;;;;;;;;;5073369;28;20071;-66
2022/08/06 03:56:34;;;;;;;18.55;11.30;;;;;;;;;;5091622;28;20040;-66
2022/08/06 03:59:03;;;;;;;25.38;17.42;;;;;;;;;;5092062;28;20094;-66
2022/08/06 04:01:33;;;;;;;18.42;11.80;;;;;;;;;;5092216;28;20555;-66
2022/08/06 04:04:01;;;;;;;20.23;15.63;;;;;;;;;;5092010;28;20497;-67
2022/08/06 04:06:49;;;;;;;16.77;10.57;;;;;;;;;;5092271;28;20050;-67
2022/08/06 04:09:19;;;;;;;19.83;14.98;;;;;;;;;;5092263;28;20090;-66
2022/08/06 04:12:07;;;;;;;11.63;8.52;;;;;;;;;;5092193;28;20375;-65
2022/08/06 04:14:55;;;;;;;16.75;7.53;;;;;;;;;;5077470;28;20441;-66
2022/08/06 04:17:23;;;;;;;16.13;9.05;;;;;;;;;;5092135;28;20044;-65
2022/08/06 04:19:51;;;;;;;12.13;8.32;;;;;;;;;;5092303;28;20068;-66
2022/08/06 04:22:23;;;;;;;14.68;7.80;;;;;;;;;;5092231;28;20470;-66
2022/08/06 04:25:11;;;;;;;10.88;7.70;;;;;;;;;;5092217;28;20482;-66
2022/08/06 04:27:41;;;;;;;13.50;7.82;;;;;;;;;;5092226;28;20486;-66
2022/08/06 04:30:20;;;;;;;12.70;9.55;;;;;;;;;;5092249;28;20093;-65
2022/08/06 04:32:52;;;;;;;13.35;7.45;;;;;;;;;;5074716;28;20037;-65
2022/08/06 04:35:29;;;;;;;15.23;10.80;;;;;;;;;;5092325;28;20117;-66
2022/08/06 04:38:18;;;;;;;13.05;9.85;;;;;;;;;;5092822;28;20495;-66
2022/08/06 04:40:57;;;;;;;13.88;9.13;;;;;;;;;;5095537;28;20486;-66
2022/08/06 04:43:30;;;;;;;13.02;8.45;;;;;;;;;;5094557;28;20043;-65
2022/08/06 04:46:18;;;;;;;16.70;10.90;;;;;;;;;;5094701;28;20039;-66
2022/08/06 04:48:47;;;;;;;10.27;7.00;;;;;;;;;;5094877;28;20039;-66
2022/08/06 04:51:22;;;;;;;9.25;7.35;;;;;;;;;;5094705;28;20074;-66
2022/08/06 04:54:10;;;;;;;14.32;10.02;;;;;;;;;;5094362;28;20547;-66
2022/08/06 04:56:39;;;;;;;10.10;7.55;;;;;;;;;;5092519;28;20068;-66
2022/08/06 04:59:17;;;;;;;11.30;7.82;;;;;;;;;;5077596;28;20040;-66
2022/08/06 05:01:46;;;;;;;14.10;7.47;;;;;;;;;;5091464;28;20051;-66
2022/08/06 05:04:27;;;;;;;11.10;7.28;;;;;;;;;;5078598;28;20375;-66
2022/08/06 05:07:19;;;;;;;10.70;7.43;;;;;;;;;;5090196;28;20052;-66
2022/08/06 05:09:49;;;;;;;18.17;13.65;;;;;;;;;;5053768;28;20056;-67
2022/08/06 05:12:37;;;;;;;10.55;7.07;;;;;;;;;;5075530;28;20048;-66
2022/08/06 05:15:21;;;;;;;9.52;6.90;;;;;;;;;;5076540;28;20051;-67
2022/08/06 05:17:50;;;;;;;11.05;7.47;;;;;;;;;;5075496;28;20105;-67
2022/08/06 05:20:20;;;;;;;10.32;6.72;;;;;;;;;;5076633;28;20032;-66
2022/08/06 05:23:00;;;;;;;10.10;7.53;;;;;;;;;;5075544;28;20132;-66
2022/08/06 05:25:36;;;;;;;9.93;6.82;;;;;;;;;;5092728;28;20040;-66
2022/08/06 05:28:07;;;;;;;10.18;6.57;;;;;;;;;;5092969;28;20036;-65
2022/08/06 05:30:45;;;;;;;10.27;7.45;;;;;;;;;;5093194;28;20568;-66
2022/08/06 05:33:22;;;;;;;7.45;6.63;;;;;;;;;;5095249;28;20040;-65
2022/08/06 05:35:54;;;;;;;14.73;11.85;;;;;;;;;;5096031;28;20048;-65
2022/08/06 05:38:29;;;;;;;8.02;6.60;;;;;;;;;;5095750;28;20123;-65
2022/08/06 05:40:58;;;;;;;11.50;7.03;;;;;;;;;;5095720;28;20046;-66
2022/08/06 05:43:28;;;;;;;14.90;8.02;;;;;;;;;;5093455;28;20048;-66
2022/08/06 05:46:20;;;;;;;10.48;8.80;;;;;;;;;;5093967;28;20040;-66
2022/08/06 05:48:52;;;;;;;9.32;6.32;;;;;;;;;;5093437;28;20032;-66
2022/08/06 05:51:23;;;;;;;11.32;5.95;;;;;;;;;;5092888;28;20058;-66
2022/08/06 05:54:18;;;;;;;10.35;6.13;;;;;;;;;;5094039;28;20048;-65
2022/08/06 05:56:48;;;;;;;7.80;5.63;;;;;;;;;;5089150;28;20040;-65
2022/08/06 05:59:24;;;;;;;6.38;5.78;;;;;;;;;;5079225;28;20072;-65
2022/08/06 06:02:12;;;;;;;12.73;6.57;;;;;;;;;;5094293;28;20055;-66
2022/08/06 06:04:43;;;;;;;6.15;5.38;;;;;;;;;;5094561;28;20059;-66
2022/08/06 06:07:14;;;;;;;7.53;5.78;;;;;;;;;;5093971;28;20051;-66
2022/08/06 06:10:02;;;;;;;6.45;5.50;;;;;;;;;;5094383;28;20051;-67
2022/08/06 06:12:31;;;;;;;9.45;5.65;;;;;;;;;;5083994;28;20036;-67
2022/08/06 06:15:01;;;;;;;7.97;6.40;;;;;;;;;;5088158;28;20039;-67
2022/08/06 06:17:48;;;;;;;6.30;5.28;;;;;;;;;;5088926;28;20044;-67
2022/08/06 06:20:16;;;;;;;11.18;5.53;;;;;;;;;;5085292;28;20048;-67
2022/08/06 06:23:10;;;;;;;7.60;5.55;;;;;;;;;;5089685;28;20091;-66
2022/08/06 06:25:42;;;;;;;8.07;6.00;;;;;;;;;;5085327;28;20256;-67
2022/08/06 06:28:27;;;;;;;7.45;5.68;;;;;;;;;;5088465;28;20043;-67
2022/08/06 06:30:59;;;;;;;9.07;5.80;;;;;;;;;;5074821;28;20043;-68
2022/08/06 06:33:43;;;;;;;6.80;5.68;;;;;;;;;;5060985;28;20032;-68
2022/08/06 06:36:20;;;;;;;9.68;6.65;;;;;;;;;;5073960;28;20074;-67
2022/08/06 06:38:47;;;;;;;10.68;6.28;;;;;;;;;;5079167;28;20064;-68
2022/08/06 06:41:34;;;;;;;11.60;6.38;;;;;;;;;;5091552;28;20127;-67
2022/08/06 06:44:13;;;;;;;8.65;5.40;;;;;;;;;;5089982;28;20066;-67
2022/08/06 06:46:47;;;;;;;8.32;5.43;;;;;;;;;;5076225;28;20036;-67
2022/08/06 06:49:19;;;;;;;8.10;5.97;;;;;;;;;;5075235;28;20493;-67
2022/08/06 06:52:11;;;;;;;12.40;9.23;;;;;;;;;;5093385;28;20068;-67
2022/08/06 06:54:47;;;;;;;6.97;5.35;;;;;;;;;;5080705;28;20049;-67
2022/08/06 06:57:36;;;;;;;9.50;5.07;;;;;;;;;;5092222;28;20036;-65
2022/08/06 07:00:09;;;;;;;6.70;5.35;;;;;;;;;;5093559;28;20462;-66
2022/08/06 07:02:58;;;;;;;5.32;4.60;;;;;;;;;;5092077;28;20067;-65
2022/08/06 07:05:28;;;;;;;6.90;4.05;;;;;;;;;;5093551;28;20039;-65
2022/08/06 07:08:18;;;;;;;4.88;4.38;;;;;;;;;;5093120;28;20040;-65
2022/08/06 07:11:04;;;;;;;6.57;4.65;;;;;;;;;;5091773;28;20044;-65
2022/08/06 07:13:32;;;;;;;9.85;6.10;;;;;;;;;;5092950;28;20036;-65
2022/08/06 07:16:18;;;;;;;6.28;4.40;;;;;;;;;;5091882;28;20106;-65
2022/08/06 07:19:03;;;;;;;5.07;4.55;;;;;;;;;;5092727;28;20070;-66
2022/08/06 07:21:31;;;;;;;6.18;4.50;;;;;;;;;;5089758;28;20433;-66
2022/08/06 07:23:59;;;;;;;8.32;5.22;;;;;;;;;;5091818;28;20028;-66
2022/08/06 07:26:47;;;;;;;8.27;4.80;;;;;;;;;;5087886;28;20114;-66
2022/08/06 07:29:18;;;;;;;5.82;4.05;;;;;;;;;;5090792;28;20040;-66
2022/08/06 07:32:08;;;;;;;6.63;4.00;;;;;;;;;;5090884;28;20036;-66
2022/08/06 07:34:56;;;;;;;4.28;3.88;;;;;;;;;;5090295;28;20036;-66
2022/08/06 07:37:26;;;;;;;5.05;4.38;;;;;;;;;;5093597;28;20050;-66
2022/08/06 07:40:07;;;;;;;4.50;4.10;;;;;;;;;;5090000;28;20060;-66
2022/08/06 07:42:36;;;;;;;6.47;4.00;;;;;;;;;;5090365;28;20036;-66
2022/08/06 07:45:07;;;;;;;9.32;4.93;;;;;;;;;;5087790;28;20046;-66
2022/08/06 07:47:44;;;;;;;8.30;4.38;;;;;;;;;;5090332;28;20523;-67
2022/08/06 07:50:23;;;;;;;5.13;3.65;;;;;;;;;;5065177;28;20135;-66
2022/08/06 07:52:52;;;;;;;7.25;4.03;;;;;;;;;;5079927;28;20087;-64
2022/08/06 07:55:24;;;;;;;8.25;4.35;;;;;;;;;;5086888;28;20053;-65
2022/08/06 07:57:59;;;;;;;3.38;3.08;;;;;;;;;;5074905;28;20037;-65
2022/08/06 08:00:31;;;;;;;5.75;3.65;;;;;;;;;;5063821;28;20036;-64
2022/08/06 08:06:17;;;;;;;4.97;4.05;;;;;;;;;;5080348;28;20107;-66
2022/08/06 08:09:07;;;;;;;5.68;3.95;;;;;;;;;;5087843;28;20367;-68
2022/08/06 08:11:40;;;;;;;4.40;4.00;;;;;;;;;;5074067;28;20423;-66
2022/08/06 08:14:28;;;;;;;6.47;4.20;;;;;;;;;;5081998;28;20113;-66
2022/08/06 08:16:56;;;;;;;6.28;3.72;;;;;;;;;;5091838;28;20044;-67
2022/08/06 08:19:23;;;;;;;4.57;4.18;;;;;;;;;;5081741;28;20074;-67
2022/08/06 08:21:52;;;;;;;6.05;4.18;;;;;;;;;;5095654;28;20036;-67
2022/08/06 08:24:20;;;;;;;5.18;4.30;;;;;;;;;;5094867;28;20097;-67
2022/08/06 08:26:47;;;;;;;6.65;4.65;;;;;;;;;;5090102;28;20064;-67
2022/08/06 08:29:35;;;;;;;4.70;4.20;;;;;;;;;;5063466;28;20108;-65
2022/08/06 08:32:05;;;;;;;5.55;4.40;;;;;;;;;;5092335;28;20040;-65
2022/08/06 08:34:45;;;;;;;5.43;4.40;;;;;;;;;;5094044;28;20043;-65
2022/08/06 08:37:19;;;;;;;5.50;4.30;;;;;;;;;;5093590;28;20040;-66
2022/08/06 08:39:47;;;;;;;4.85;4.03;;;;;;;;;;5081830;28;20044;-70
2022/08/06 08:42:19;;;;;;;4.85;3.90;;;;;;;;;;5089244;28;20074;-67
2022/08/06 08:45:00;;;;;;;4.80;3.90;;;;;;;;;;5075104;28;20094;-66
2022/08/06 08:47:30;;;;;;;11.48;4.80;;;;;;;;;;5087192;28;20035;-65
2022/08/06 08:50:19;;;;;;;6.10;4.05;;;;;;;;;;5090154;28;20045;-65
2022/08/06 08:52:50;;;;;;;5.43;4.35;;;;;;;;;;5081949;28;20467;-66
2022/08/06 08:55:21;;;;;;;4.60;3.90;;;;;;;;;;5087640;28;20056;-66
2022/08/06 08:58:09;;;;;;;5.70;4.50;;;;;;;;;;5084236;28;20029;-66
2022/08/06 09:00:56;;;;;;;6.30;4.70;;;;;;;;;;5083199;28;20036;-66
2022/08/06 09:03:24;;;;;;;5.78;4.35;;;;;;;;;;5084370;28;20047;-66
2022/08/06 09:05:52;;;;;;;7.03;5.85;;;;;;;;;;5089290;28;20038;-66
2022/08/06 09:08:21;;;;;;;6.78;4.28;;;;;;;;;;5084397;28;20028;-67
2022/08/06 09:11:09;;;;;;;9.85;6.40;;;;;;;;;;5083035;28;20036;-65
2022/08/06 09:13:57;;;;;;;11.60;9.90;;;;;;;;;;5086843;28;20113;-66
2022/08/06 09:16:31;;;;;;;7.22;4.45;;;;;;;;;;5090430;28;20040;-66
2022/08/06 09:19:00;;;;;;;6.13;4.60;;;;;;;;;;5073214;28;20062;-66
2022/08/06 09:21:28;;;;;;;4.60;4.20;;;;;;;;;;5094324;28;20040;-66
2022/08/06 09:23:57;;;;;;;7.63;6.57;;;;;;;;;;5094248;28;20500;-66
2022/08/06 09:26:25;;;;;;;6.80;4.45;;;;;;;;;;5094130;28;20051;-66
2022/08/06 09:29:22;;;;;;;7.93;4.88;;;;;;;;;;5094574;28;20048;-66
2022/08/06 09:32:06;;;;;;;10.88;7.47;;;;;;;;;;5092678;28;20060;-65
2022/08/06 09:34:44;;;;;;;7.10;5.57;;;;;;;;;;5087752;28;20049;-66
2022/08/06 09:37:26;;;;;;;7.55;6.07;;;;;;;;;;5087582;28;20060;-66
2022/08/06 09:40:14;;;;;;;6.90;4.72;;;;;;;;;;5084576;28;20046;-65
2022/08/06 09:42:43;;;;;;;8.60;7.68;;;;;;;;;;5090794;28;20213;-66
2022/08/06 09:45:14;;;;;;;8.07;7.25;;;;;;;;;;5093999;28;20101;-66
2022/08/06 09:48:03;;;;;;;5.63;4.70;;;;;;;;;;5093983;28;20048;-66
2022/08/06 09:50:38;;;;;;;5.80;4.78;;;;;;;;;;5093806;28;20063;-66
2022/08/06 09:53:10;;;;;;;5.10;4.30;;;;;;;;;;5093386;28;20119;-65
2022/08/06 09:55:41;;;;;;;6.90;5.70;;;;;;;;;;5090871;28;20131;-65
2022/08/06 09:58:11;;;;;;;8.10;6.82;;;;;;;;;;5094466;28;20032;-65
2022/08/06 10:00:39;;;;;;;6.82;4.53;;;;;;;;;;5089985;28;20048;-66
2022/08/06 10:03:10;;;;;;;10.68;8.32;;;;;;;;;;5086615;28;21060;-66
2022/08/06 10:06:05;;;;;;;7.38;4.78;;;;;;;;;;5089668;28;20064;-66
2022/08/06 10:08:38;;;;;;;7.82;5.90;;;;;;;;;;5080708;28;20082;-66
2022/08/06 10:11:06;;;;;;;7.72;5.93;;;;;;;;;;5084270;28;20119;-66
2022/08/06 10:13:34;;;;;;;5.55;4.78;;;;;;;;;;5088970;28;20557;-66
2022/08/06 10:16:26;;;;;;;7.57;4.70;;;;;;;;;;5084051;28;20048;-66
2022/08/06 10:18:55;;;;;;;6.50;5.63;;;;;;;;;;5081340;28;20033;-67
2022/08/06 10:21:30;;;;;;;6.40;4.70;;;;;;;;;;5090083;28;20138;-67
2022/08/06 10:24:09;;;;;;;8.07;5.82;;;;;;;;;;5093236;28;20040;-67
2022/08/06 10:26:36;;;;;;;6.45;5.07;;;;;;;;;;5093109;28;20791;-67
2022/08/06 10:29:05;;;;;;;6.70;5.03;;;;;;;;;;5074911;28;20401;-66
2022/08/06 10:31:34;;;;;;;5.80;4.40;;;;;;;;;;5092629;28;20040;-66
2022/08/06 10:34:16;;;;;;;5.90;5.30;;;;;;;;;;5077652;28;20364;-66
2022/08/06 10:36:45;;;;;;;6.28;4.68;;;;;;;;;;5081212;28;20512;-66
2022/08/06 10:39:15;;;;;;;6.72;5.38;;;;;;;;;;5077313;28;20041;-67
2022/08/06 10:42:04;;;;;;;7.50;5.00;;;;;;;;;;5077213;28;20508;-67
2022/08/06 10:44:50;;;;;;;7.18;4.47;;;;;;;;;;5078358;28;20135;-66
2022/08/06 10:47:21;;;;;;;6.10;4.10;;;;;;;;;;5074481;28;20126;-66
2022/08/06 10:50:10;;;;;;;9.82;5.15;;;;;;;;;;5082983;28;20375;-66
2022/08/06 10:52:58;;;;;;;6.30;4.60;;;;;;;;;;5084901;28;20078;-66
2022/08/06 10:55:27;;;;;;;5.93;4.53;;;;;;;;;;5081348;28;20059;-66
2022/08/06 10:58:11;;;;;;;5.03;4.30;;;;;;;;;;5077103;28;20398;-66
2022/08/06 11:00:40;;;;;;;5.55;4.15;;;;;;;;;;5090867;28;20028;-66
2022/08/06 11:03:54;;;;;;;7.00;4.47;;;;;;;;;;5091341;28;20067;-66
2022/08/06 11:06:46;;;;;;;7.03;4.30;;;;;;;;;;5045120;28;20114;-66
2022/08/06 11:09:40;;;;;;;7.15;5.40;;;;;;;;;;5077600;28;20098;-66
2022/08/06 11:12:37;;;;;;;9.50;5.10;;;;;;;;;;5083550;28;20116;-67
2022/08/06 11:15:07;;;;;;;8.43;4.82;;;;;;;;;;5084630;28;20044;-66
2022/08/06 11:17:45;;;;;;;8.20;4.78;;;;;;;;;;5072710;28;20040;-66
2022/08/06 11:20:48;;;;;;;11.50;5.45;;;;;;;;;;5078590;28;20051;-66
2022/08/06 11:23:16;;;;;;;7.15;4.25;;;;;;;;;;5029910;28;20446;-65
2022/08/06 11:26:04;;;;;;;5.55;4.50;;;;;;;;;;5086489;28;20052;-65
2022/08/06 11:28:32;;;;;;;6.50;4.28;;;;;;;;;;5085371;28;20391;-65
2022/08/06 11:31:00;;;;;;;4.90;4.22;;;;;;;;;;5069619;28;20493;-66
2022/08/06 11:33:35;;;;;;;7.75;5.28;;;;;;;;;;5084794;28;20398;-65
2022/08/06 11:36:03;;;;;;;;;;;;;;;;;;5089615;28;20094;-65
2022/08/06 11:38:46;;;;;;;13.05;6.80;;;;;;;;;;5088034;28;19955;-66
2022/08/06 11:41:30;;;;;;;10.93;6.13;;;;;;;;;;5082520;28;20043;-66
2022/08/06 11:44:24;;;;;;;7.55;5.85;;;;;;;;;;5091099;28;20033;-65
2022/08/06 11:47:07;;;;;;;7.03;4.80;;;;;;;;;;5086961;28;20040;-65
2022/08/06 11:49:37;;;;;;;5.88;4.65;;;;;;;;;;5092747;28;20038;-65
2022/08/06 11:52:31;;;;;;;5.07;4.38;;;;;;;;;;5089505;28;20037;-65
2022/08/06 11:55:07;;;;;;;6.88;4.72;;;;;;;;;;5076879;28;20036;-64
2022/08/06 11:57:40;;;;;;;6.43;4.57;;;;;;;;;;5092062;28;20071;-71
2022/08/06 12:00:17;;;;;;;4.88;4.25;;;;;;;;;;5075206;28;20478;-66
2022/08/06 12:02:49;;;;;;;4.57;4.18;;;;;;;;;;5091397;28;20047;-65
2022/08/06 12:05:22;;;;;;;4.65;4.00;;;;;;;;;;5091799;28;20107;-65
2022/08/06 12:08:27;;;;;;;6.32;4.63;;;;;;;;;;5091766;28;20032;-65
2022/08/06 12:11:22;;;;;;;6.95;4.60;;;;;;;;;;5005024;28;20073;-65
2022/08/06 12:13:51;;;;;;;5.07;4.57;;;;;;;;;;5095913;28;20047;-66
2022/08/06 12:16:39;;;;;;;5.68;4.57;;;;;;;;;;5093882;28;20515;-66
2022/08/06 12:19:21;;;;;;;6.25;4.50;;;;;;;;;;5077886;28;20059;-65
2022/08/06 12:21:54;;;;;;;5.75;4.68;;;;;;;;;;5078616;28;20051;-65
2022/08/06 12:24:25;;;;;;;7.07;4.60;;;;;;;;;;5097057;28;20075;-65
2022/08/06 12:27:13;;;;;;;5.63;4.05;;;;;;;;;;5096399;28;20040;-65
2022/08/06 12:29:42;;;;;;;8.30;5.10;;;;;;;;;;5096439;28;20044;-66
2022/08/06 12:32:30;;;;;;;6.05;4.57;;;;;;;;;;5078980;28;20390;-65
2022/08/06 12:34:59;;;;;;;5.50;4.25;;;;;;;;;;5096220;28;20028;-65
2022/08/06 12:37:41;;;;;;;6.35;4.68;;;;;;;;;;5090833;28;20072;-65
2022/08/06 12:40:28;;;;;;;10.27;6.65;;;;;;;;;;5085801;28;20044;-65
2022/08/06 12:43:03;;;;;;;8.45;5.63;;;;;;;;;;5089319;28;20032;-65
2022/08/06 12:45:42;;;;;;;7.55;5.40;;;;;;;;;;5084221;28;20053;-65
2022/08/06 12:48:31;;;;;;;5.68;4.65;;;;;;;;;;5083109;28;20119;-65
2022/08/06 12:51:02;;;;;;;6.35;4.65;;;;;;;;;;5086661;28;20504;-65
2022/08/06 12:53:39;;;;;;;7.63;5.10;;;;;;;;;;5082843;28;20051;-64
2022/08/06 12:56:14;;;;;;;5.82;4.50;;;;;;;;;;5077932;28;20051;-65
2022/08/06 12:58:57;;;;;;;5.78;5.28;;;;;;;;;;5090321;28;20047;-65
2022/08/06 13:01:26;;;;;;;5.93;5.00;;;;;;;;;;5090921;28;20399;-65
2022/08/06 13:04:14;;;;;;;5.50;4.60;;;;;;;;;;5090648;28;20032;-65
2022/08/06 13:06:46;;;;;;;6.82;5.30;;;;;;;;;;5096445;28;20405;-65
2022/08/06 13:09:16;;;;;;;7.10;4.80;;;;;;;;;;5090707;28;20048;-65
2022/08/06 13:11:44;;;;;;;4.68;4.28;;;;;;;;;;5086996;28;20044;-65
2022/08/06 13:14:19;;;;;;;9.40;6.68;;;;;;;;;;5090529;28;20039;-65
2022/08/06 13:16:49;;;;;;;6.00;5.28;;;;;;;;;;5086209;28;20043;-66
2022/08/06 13:19:22;;;;;;;5.70;4.50;;;;;;;;;;5091946;28;20493;-65
2022/08/06 13:22:09;;;;;;;5.72;5.05;;;;;;;;;;5067419;28;20041;-65
2022/08/06 13:24:37;;;;;;;6.35;4.13;;;;;;;;;;5087843;28;20054;-66
2022/08/06 13:27:36;;;;;;;5.82;4.15;;;;;;;;;;5084851;28;20431;-65
2022/08/06 13:30:05;;;;;;;6.00;4.60;;;;;;;;;;5092857;28;20469;-66
2022/08/06 13:32:53;;;;;;;6.82;4.30;;;;;;;;;;5093542;28;20371;-65
2022/08/06 13:35:27;;;;;;;6.15;4.70;;;;;;;;;;5080877;28;20388;-64
2022/08/06 13:37:57;;;;;;;5.57;4.63;;;;;;;;;;5076882;28;20443;-65
2022/08/06 13:40:44;;;;;;;4.55;3.97;;;;;;;;;;5077111;28;20552;-65
2022/08/06 13:43:19;;;;;;;5.13;3.92;;;;;;;;;;5076760;28;20036;-65
2022/08/06 13:46:11;;;;;;;6.65;4.20;;;;;;;;;;5076499;28;20040;-65
2022/08/06 13:48:45;;;;;;;6.53;4.72;;;;;;;;;;5079524;28;20044;-65
2022/08/06 13:51:16;;;;;;;7.07;4.07;;;;;;;;;;5091550;28;20565;-66
2022/08/06 13:53:55;;;;;;;7.03;4.45;;;;;;;;;;5091662;28;20131;-66
2022/08/06 13:56:30;;;;;;;5.57;4.47;;;;;;;;;;5080445;28;20045;-66
2022/08/06 13:59:02;;;;;;;5.10;4.00;;;;;;;;;;5080275;28;20036;-66
2022/08/06 14:01:31;;;;;;;5.18;4.68;;;;;;;;;;5087191;28;20113;-66
2022/08/06 14:04:12;;;;;;;5.03;3.95;;;;;;;;;;5092125;28;20051;-66
2022/08/06 14:06:41;;;;;;;29.00;7.75;;;;;;;;;;5093806;28;20123;-66
2022/08/06 14:09:13;;;;;;;6.28;4.30;;;;;;;;;;5075263;28;20047;-66
2022/08/06 14:11:58;;;;;;;15.13;9.77;;;;;;;;;;5076166;28;20040;-66
2022/08/06 14:14:27;;;;;;;13.80;12.35;;;;;;;;;;5093761;28;20135;-66
2022/08/06 14:16:59;;;;;;;11.23;5.22;;;;;;;;;;5075996;28;20040;-66
2022/08/06 14:19:29;;;;;;;10.77;8.20;;;;;;;;;;5093916;28;20058;-66
2022/08/06 14:22:17;;;;;;;13.15;10.95;;;;;;;;;;5093459;28;20040;-66
2022/08/06 14:24:52;;;;;;;12.07;7.85;;;;;;;;;;5093419;28;20114;-65
2022/08/06 14:27:21;;;;;;;6.45;4.95;;;;;;;;;;5093546;28;20036;-65
2022/08/06 14:29:51;;;;;;;8.27;4.35;;;;;;;;;;5093562;28;20118;-65
2022/08/06 14:32:39;;;;;;;5.00;4.20;;;;;;;;;;5093280;28;20116;-65
2022/08/06 14:35:07;;;;;;;10.60;6.28;;;;;;;;;;5093525;28;20040;-66
2022/08/06 14:37:34;;;;;;;5.38;4.20;;;;;;;;;;5093363;28;20066;-65
2022/08/06 14:44:54;;;;;;;;;;;;;;;;;;5093846;28;20097;-65
2022/08/06 14:45:58;;;;;;;6.57;4.65;;;;;;;;;;5075020;28;20044;-66
2022/08/06 14:48:26;;;;;;;5.20;4.70;;;;;;;;;;5093219;28;20559;-66
2022/08/06 14:50:57;;;;;;;7.30;4.90;;;;;;;;;;5089766;28;20051;-66
2022/08/06 14:53:25;;;;;;;5.80;4.88;;;;;;;;;;5091419;28;20501;-67
2022/08/06 14:55:57;;;;;;;6.80;6.10;;;;;;;;;;5088779;28;20066;-66
2022/08/06 14:58:34;;;;;;;26.77;18.92;;;;;;;;;;5091582;28;20047;-66
2022/08/06 15:01:03;;;;;;;5.85;4.53;;;;;;;;;;5088454;28;20037;-67
2022/08/06 15:03:43;;;;;;;6.45;4.88;;;;;;;;;;5085238;28;20139;-67
2022/08/06 15:06:12;;;;;;;8.27;5.70;;;;;;;;;;5092612;28;20137;-67
2022/08/06 15:08:42;;;;;;;6.47;4.47;;;;;;;;;;5092692;28;20042;-67
2022/08/06 15:11:15;;;;;;;5.50;4.93;;;;;;;;;;5078064;28;20391;-67
2022/08/06 15:13:44;;;;;;;5.35;4.20;;;;;;;;;;5092546;28;20127;-67
2022/08/06 15:16:18;;;;;;;5.90;4.13;;;;;;;;;;5092524;28;20500;-67
2022/08/06 15:19:05;;;;;;;5.88;4.50;;;;;;;;;;5092366;28;20039;-66
2022/08/06 15:21:53;;;;;;;7.65;4.70;;;;;;;;;;5092285;28;20102;-67
2022/08/06 15:24:24;;;;;;;7.72;5.57;;;;;;;;;;5073531;28;20044;-63
2022/08/06 15:26:52;;;;;;;7.80;6.40;;;;;;;;;;5072231;28;20116;-64
2022/08/06 15:29:24;;;;;;;12.88;10.50;;;;;;;;;;5084962;28;20040;-62
2022/08/06 15:31:52;;;;;;;6.18;4.75;;;;;;;;;;5092062;28;20044;-62
2022/08/06 15:34:25;;;;;;;6.15;4.50;;;;;;;;;;5092041;28;20040;-62
2022/08/06 15:36:55;;;;;;;5.60;3.85;;;;;;;;;;5091626;28;20042;-63
2022/08/06 15:39:29;;;;;;;6.15;4.88;;;;;;;;;;5092102;28;20036;-63